地図

経路データ

SID SEASON NUMBER BASIN SUBBASIN NAME ISO_TIME NATURE LAT LON WMO_WIND WMO_PRES WMO_AGENCY TRACK_TYPE DIST2LAND LANDFALL IFLAG USA_AGENCY USA_ATCF_ID USA_LAT USA_LON USA_RECORD USA_STATUS USA_WIND USA_PRES USA_SSHS USA_R34_NE USA_R34_SE USA_R34_SW USA_R34_NW USA_R50_NE USA_R50_SE USA_R50_SW USA_R50_NW USA_R64_NE USA_R64_SE USA_R64_SW USA_R64_NW USA_POCI USA_ROCI USA_RMW USA_EYE TOKYO_LAT TOKYO_LON TOKYO_GRADE TOKYO_WIND TOKYO_PRES TOKYO_R50_DIR TOKYO_R50_LONG TOKYO_R50_SHORT TOKYO_R30_DIR TOKYO_R30_LONG TOKYO_R30_SHORT TOKYO_LAND CMA_LAT CMA_LON CMA_CAT CMA_WIND CMA_PRES HKO_LAT HKO_LON HKO_CAT HKO_WIND HKO_PRES NEWDELHI_LAT NEWDELHI_LON NEWDELHI_GRADE NEWDELHI_WIND NEWDELHI_PRES NEWDELHI_CI NEWDELHI_DP NEWDELHI_POCI REUNION_LAT REUNION_LON REUNION_TYPE REUNION_WIND REUNION_PRES REUNION_TNUM REUNION_CI REUNION_RMW REUNION_R34_NE REUNION_R34_SE REUNION_R34_SW REUNION_R34_NW REUNION_R50_NE REUNION_R50_SE REUNION_R50_SW REUNION_R50_NW REUNION_R64_NE REUNION_R64_SE REUNION_R64_SW REUNION_R64_NW BOM_LAT BOM_LON BOM_TYPE BOM_WIND BOM_PRES BOM_TNUM BOM_CI BOM_RMW BOM_R34_NE BOM_R34_SE BOM_R34_SW BOM_R34_NW BOM_R50_NE BOM_R50_SE BOM_R50_SW BOM_R50_NW BOM_R64_NE BOM_R64_SE BOM_R64_SW BOM_R64_NW BOM_ROCI BOM_POCI BOM_EYE BOM_POS_METHOD BOM_PRES_METHOD NADI_LAT NADI_LON NADI_CAT NADI_WIND NADI_PRES WELLINGTON_LAT WELLINGTON_LON WELLINGTON_WIND WELLINGTON_PRES DS824_LAT DS824_LON DS824_STAGE DS824_WIND DS824_PRES TD9636_LAT TD9636_LON TD9636_STAGE TD9636_WIND TD9636_PRES TD9635_LAT TD9635_LON TD9635_WIND TD9635_PRES TD9635_ROCI NEUMANN_LAT NEUMANN_LON NEUMANN_CLASS NEUMANN_WIND NEUMANN_PRES MLC_LAT MLC_LON MLC_CLASS MLC_WIND MLC_PRES USA_GUST BOM_GUST BOM_GUST_PER REUNION_GUST REUNION_GUST_PER USA_SEAHGT USA_SEARAD_NE USA_SEARAD_SE USA_SEARAD_SW USA_SEARAD_NW STORM_SPEED STORM_DIR
1894042S16063 1894 8 SI MM NOT_NAMED 1894-02-11 00:00:00 TS -16.3000 62.6000 main 669 647 _________O____ -1 -16.3000 62.6000 TC 4 221
1894042S16063 1894 8 SI MM NOT_NAMED 1894-02-11 03:00:00 TS -16.4600 62.4501 main 647 623 _________P____ -1 -16.4600 62.4501 TC 4 224
1894042S16063 1894 8 SI MM NOT_NAMED 1894-02-11 06:00:00 TS -16.6000 62.3000 main 623 608 _________O____ -1 -16.6000 62.3000 TC 4 229
1894042S16063 1894 8 SI MM NOT_NAMED 1894-02-11 09:00:00 TS -16.7075 62.1500 main 600 584 _________P____ -1 -16.7075 62.1500 TC 4 235
1894042S16063 1894 8 SI MM NOT_NAMED 1894-02-11 12:00:00 TS -16.8000 62.0000 main 584 569 _________O____ -1 -16.8000 62.0000 TC 4 237
1894042S16063 1894 8 SI MM NOT_NAMED 1894-02-11 15:00:00 TS -16.9000 61.8425 main 561 545 _________P____ -1 -16.9000 61.8425 TC 4 235
1894042S16063 1894 8 SI MM NOT_NAMED 1894-02-11 18:00:00 TS -17.0000 61.7000 main 545 530 _________O____ -1 -17.0000 61.7000 TC 3 229
1894042S16063 1894 8 SI MM NOT_NAMED 1894-02-11 21:00:00 TS -17.0925 61.6074 main 530 515 _________P____ -1 -17.0925 61.6074 TC 3 224
1894042S16063 1894 8 SI MM NOT_NAMED 1894-02-12 00:00:00 TS -17.2000 61.5000 main 515 491 _________O____ -1 -17.2000 61.5000 TC 4 229
1894042S16063 1894 8 SI MM NOT_NAMED 1894-02-12 03:00:00 TS -17.3425 61.3075 main 491 461 _________P____ -1 -17.3425 61.3075 TC 5 232
1894042S16063 1894 8 SI MM NOT_NAMED 1894-02-12 06:00:00 TS -17.5000 61.1000 main 461 445 _________O____ -1 -17.5000 61.1000 TC 5 228
1894042S16063 1894 8 SI MM NOT_NAMED 1894-02-12 09:00:00 TS -17.6500 60.9425 main 437 415 _________P____ -1 -17.6500 60.9425 TC 4 223
1894042S16063 1894 8 SI MM NOT_NAMED 1894-02-12 12:00:00 TS -17.8000 60.8000 main 415 400 _________O____ -1 -17.8000 60.8000 TC 4 222
1894042S16063 1894 8 SI MM NOT_NAMED 1894-02-12 15:00:00 TS -17.9575 60.6500 main 393 369 _________P____ -1 -17.9575 60.6500 TC 4 223
1894042S16063 1894 8 SI MM NOT_NAMED 1894-02-12 18:00:00 TS -18.1000 60.5000 main 369 354 _________O____ -1 -18.1000 60.5000 TC 4 229
1894042S16063 1894 8 SI MM NOT_NAMED 1894-02-12 21:00:00 TS -18.1924 60.3649 main 354 330 _________P____ -1 -18.1924 60.3649 TC 3 235
1894042S16063 1894 8 SI MM NOT_NAMED 1894-02-13 00:00:00 TS -18.3000 60.2000 main 330 300 _________O____ -1 -18.3000 60.2000 TC 5 233
1894042S16063 1894 8 SI MM NOT_NAMED 1894-02-13 03:00:00 TS -18.4850 59.9576 main 300 261 _________P____ -1 -18.4850 59.9576 TC 6 230
1894042S16063 1894 8 SI MM NOT_NAMED 1894-02-13 06:00:00 TS -18.7000 59.7000 main 261 231 _________O____ -1 -18.7000 59.7000 TC 6 227
1894042S16063 1894 8 SI MM NOT_NAMED 1894-02-13 09:00:00 TS -18.9000 59.4924 main 231 201 _________P____ -1 -18.9000 59.4924 TC 6 223
1894042S16063 1894 8 SI MM NOT_NAMED 1894-02-13 12:00:00 TS -19.1000 59.3000 main 201 171 _________O____ -1 -19.1000 59.3000 TC 6 223
1894042S16063 1894 8 SI MM NOT_NAMED 1894-02-13 15:00:00 TS -19.3000 59.0925 main 171 142 _________P____ -1 -19.3000 59.0925 TC 6 223
1894042S16063 1894 8 SI MM NOT_NAMED 1894-02-13 18:00:00 TS -19.5000 58.9000 main 142 113 _________O____ -1 -19.5000 58.9000 TC 5 220
1894042S16063 1894 8 SI MM NOT_NAMED 1894-02-13 21:00:00 TS -19.7000 58.7401 main 113 94 _________P____ -1 -19.7000 58.7401 TC 5 215
1894042S16063 1894 8 SI MM NOT_NAMED 1894-02-14 00:00:00 TS -19.9000 58.6000 main 94 _________O____ -1 -19.9000 58.6000 TC 5 214

IBTrACS Databaseについて

本データベースは、米国NOAAが公開する1842年以降の世界の熱帯低気圧のベストトラックデータアーカイブInternational Best Track Archive for Climate Stewardship (IBTrACS)を、ウェブで閲覧しやすい形式に変換したものです。

最終更新日:2021-12-03